sensor_id;sensor_type;location;lat;lon;timestamp;pressure;altitude;pressure_sealevel;temperature
71897;BMP280;59767;51.344;12.362;2023-04-06T00:00:37;159908.72;;;5.00
71897;BMP280;59767;51.344;12.362;2023-04-06T00:03:40;159912.63;;;5.02
71897;BMP280;59767;51.344;12.362;2023-04-06T00:06:45;159953.06;;;5.17
71897;BMP280;59767;51.344;12.362;2023-04-06T00:09:48;159919.09;;;5.04
71897;BMP280;59767;51.344;12.362;2023-04-06T00:12:54;159928.25;;;5.08
71897;BMP280;59767;51.344;12.362;2023-04-06T00:15:58;159930.84;;;5.09
71897;BMP280;59767;51.344;12.362;2023-04-06T00:19:03;159928.25;;;5.08
71897;BMP280;59767;51.344;12.362;2023-04-06T00:22:07;159913.91;;;5.02
71897;BMP280;59767;51.344;12.362;2023-04-06T00:25:11;159910.00;;;5.01
71897;BMP280;59767;51.344;12.362;2023-04-06T00:28:15;159930.84;;;5.09
71897;BMP280;59767;51.344;12.362;2023-04-06T00:31:19;159933.47;;;5.10
71897;BMP280;59767;51.344;12.362;2023-04-06T00:34:23;159941.31;;;5.13
71897;BMP280;59767;51.344;12.362;2023-04-06T00:37:27;159955.66;;;5.18
71897;BMP280;59767;51.344;12.362;2023-04-06T00:40:31;159959.56;;;5.20
71897;BMP280;59767;51.344;12.362;2023-04-06T00:43:36;159943.91;;;5.14
71897;BMP280;59767;51.344;12.362;2023-04-06T00:46:40;159981.75;;;5.28
71897;BMP280;59767;51.344;12.362;2023-04-06T00:49:44;159972.59;;;5.25
71897;BMP280;59767;51.344;12.362;2023-04-06T00:52:48;159980.44;;;5.28
71897;BMP280;59767;51.344;12.362;2023-04-06T00:55:52;159968.69;;;5.23
71897;BMP280;59767;51.344;12.362;2023-04-06T00:58:56;159964.75;;;5.22
71897;BMP280;59767;51.344;12.362;2023-04-06T01:02:00;159954.38;;;5.18
71897;BMP280;59767;51.344;12.362;2023-04-06T01:05:05;159930.84;;;5.09
71897;BMP280;59767;51.344;12.362;2023-04-06T01:08:09;159921.72;;;5.05
71897;BMP280;59767;51.344;12.362;2023-04-06T01:11:13;159915.22;;;5.03
71897;BMP280;59767;51.344;12.362;2023-04-06T01:14:17;159907.41;;;5.00
71897;BMP280;59767;51.344;12.362;2023-04-06T01:17:21;159889.09;;;4.93
71897;BMP280;59767;51.344;12.362;2023-04-06T01:20:25;159887.81;;;4.92
71897;BMP280;59767;51.344;12.362;2023-04-06T01:23:29;159882.59;;;4.90
71897;BMP280;59767;51.344;12.362;2023-04-06T01:26:34;159861.72;;;4.82
71897;BMP280;59767;51.344;12.362;2023-04-06T01:29:39;159843.44;;;4.75
71897;BMP280;59767;51.344;12.362;2023-04-06T01:32:46;159836.91;;;4.73
71897;BMP280;59767;51.344;12.362;2023-04-06T01:35:51;159829.09;;;4.70
71897;BMP280;59767;51.344;12.362;2023-04-06T01:38:55;159805.66;;;4.61
71897;BMP280;59767;51.344;12.362;2023-04-06T01:41:59;159797.81;;;4.58
71897;BMP280;59767;51.344;12.362;2023-04-06T01:45:03;159797.81;;;4.58
71897;BMP280;59767;51.344;12.362;2023-04-06T01:48:07;159788.69;;;4.54
71897;BMP280;59767;51.344;12.362;2023-04-06T01:51:11;159797.81;;;4.58
71897;BMP280;59767;51.344;12.362;2023-04-06T01:54:15;159836.91;;;4.73
71897;BMP280;59767;51.344;12.362;2023-04-06T01:57:19;159876.06;;;4.88
71897;BMP280;59767;51.344;12.362;2023-04-06T02:00:24;159863.06;;;4.83
71897;BMP280;59767;51.344;12.362;2023-04-06T02:03:28;159823.91;;;4.68
71897;BMP280;59767;51.344;12.362;2023-04-06T02:06:32;159844.75;;;4.76
71897;BMP280;59767;51.344;12.362;2023-04-06T02:09:36;159800.41;;;4.59
71897;BMP280;59767;51.344;12.362;2023-04-06T02:12:40;159814.75;;;4.64
71897;BMP280;59767;51.344;12.362;2023-04-06T02:15:44;159826.50;;;4.69
71897;BMP280;59767;51.344;12.362;2023-04-06T02:18:49;159820.00;;;4.66
71897;BMP280;59767;51.344;12.362;2023-04-06T02:21:53;159812.16;;;4.63
71897;BMP280;59767;51.344;12.362;2023-04-06T02:24:56;159827.78;;;4.69
71897;BMP280;59767;51.344;12.362;2023-04-06T02:28:01;159799.09;;;4.58
71897;BMP280;59767;51.344;12.362;2023-04-06T02:31:05;159789.94;;;4.55
71897;BMP280;59767;51.344;12.362;2023-04-06T02:34:09;159782.13;;;4.52
71897;BMP280;59767;51.344;12.362;2023-04-06T02:37:17;159792.59;;;4.56
71897;BMP280;59767;51.344;12.362;2023-04-06T02:40:21;159777.00;;;4.50
71897;BMP280;59767;51.344;12.362;2023-04-06T02:43:25;159787.34;;;4.54
71897;BMP280;59767;51.344;12.362;2023-04-06T02:46:30;159762.59;;;4.44
71897;BMP280;59767;51.344;12.362;2023-04-06T02:49:34;159780.84;;;4.51
71897;BMP280;59767;51.344;12.362;2023-04-06T02:52:38;159791.28;;;4.55
71897;BMP280;59767;51.344;12.362;2023-04-06T02:55:42;159780.84;;;4.51
71897;BMP280;59767;51.344;12.362;2023-04-06T02:58:46;159792.59;;;4.56
71897;BMP280;59767;51.344;12.362;2023-04-06T03:01:51;159753.44;;;4.41
71897;BMP280;59767;51.344;12.362;2023-04-06T03:04:55;159737.81;;;4.35
71897;BMP280;59767;51.344;12.362;2023-04-06T03:07:59;159732.56;;;4.33
71897;BMP280;59767;51.344;12.362;2023-04-06T03:11:03;159754.78;;;4.41
71897;BMP280;59767;51.344;12.362;2023-04-06T03:14:07;159760.00;;;4.43
71897;BMP280;59767;51.344;12.362;2023-04-06T03:17:11;159750.84;;;4.40
71897;BMP280;59767;51.344;12.362;2023-04-06T03:20:15;159774.34;;;4.49
71897;BMP280;59767;51.344;12.362;2023-04-06T03:23:18;159765.19;;;4.45
71897;BMP280;59767;51.344;12.362;2023-04-06T03:26:24;159754.78;;;4.41
71897;BMP280;59767;51.344;12.362;2023-04-06T03:29:28;159730.03;;;4.32
71897;BMP280;59767;51.344;12.362;2023-04-06T03:32:32;159719.53;;;4.28
71897;BMP280;59767;51.344;12.362;2023-04-06T03:35:36;159713.03;;;4.25
71897;BMP280;59767;51.344;12.362;2023-04-06T03:38:40;159693.47;;;4.18
71897;BMP280;59767;51.344;12.362;2023-04-06T03:41:44;159677.81;;;4.12
71897;BMP280;59767;51.344;12.362;2023-04-06T03:44:49;159658.25;;;4.04
71897;BMP280;59767;51.344;12.362;2023-04-06T03:47:53;159647.84;;;4.00
71897;BMP280;59767;51.344;12.362;2023-04-06T03:50:57;159630.88;;;3.94
71897;BMP280;59767;51.344;12.362;2023-04-06T03:54:01;159607.44;;;3.85
71897;BMP280;59767;51.344;12.362;2023-04-06T03:57:05;159610.03;;;3.86
71897;BMP280;59767;51.344;12.362;2023-04-06T04:00:09;159608.72;;;3.85
71897;BMP280;59767;51.344;12.362;2023-04-06T04:03:13;159602.22;;;3.83
71897;BMP280;59767;51.344;12.362;2023-04-06T04:06:17;159582.66;;;3.75
71897;BMP280;59767;51.344;12.362;2023-04-06T04:09:21;159581.34;;;3.75
71897;BMP280;59767;51.344;12.362;2023-04-06T04:12:25;159559.19;;;3.66
71897;BMP280;59767;51.344;12.362;2023-04-06T04:15:29;159563.09;;;3.68
71897;BMP280;59767;51.344;12.362;2023-04-06T04:18:33;159591.75;;;3.79
71897;BMP280;59767;51.344;12.362;2023-04-06T04:21:44;159564.41;;;3.68
71897;BMP280;59767;51.344;12.362;2023-04-06T04:24:48;159569.59;;;3.70
71897;BMP280;59767;51.344;12.362;2023-04-06T04:27:52;159568.28;;;3.70
71897;BMP280;59767;51.344;12.362;2023-04-06T04:30:56;159580.00;;;3.74
71897;BMP280;59767;51.344;12.362;2023-04-06T04:34:00;159563.09;;;3.68
71897;BMP280;59767;51.344;12.362;2023-04-06T04:37:04;159564.41;;;3.68
71897;BMP280;59767;51.344;12.362;2023-04-06T04:40:08;159572.19;;;3.71
71897;BMP280;59767;51.344;12.362;2023-04-06T04:43:12;159581.34;;;3.75
71897;BMP280;59767;51.344;12.362;2023-04-06T04:46:17;159572.19;;;3.71
71897;BMP280;59767;51.344;12.362;2023-04-06T04:49:21;159550.03;;;3.63
71897;BMP280;59767;51.344;12.362;2023-04-06T04:52:24;159568.28;;;3.70
71897;BMP280;59767;51.344;12.362;2023-04-06T04:55:28;159586.56;;;3.77
71897;BMP280;59767;51.344;12.362;2023-04-06T04:58:33;159596.97;;;3.81
71897;BMP280;59767;51.344;12.362;2023-04-06T05:01:37;159598.31;;;3.81
71897;BMP280;59767;51.344;12.362;2023-04-06T05:04:57;159612.63;;;3.87
71897;BMP280;59767;51.344;12.362;2023-04-06T05:08:01;159595.66;;;3.80
71897;BMP280;59767;51.344;12.362;2023-04-06T05:11:05;159591.75;;;3.79
71897;BMP280;59767;51.344;12.362;2023-04-06T05:14:09;159604.81;;;3.84
71897;BMP280;59767;51.344;12.362;2023-04-06T05:17:13;159619.19;;;3.89
71897;BMP280;59767;51.344;12.362;2023-04-06T05:20:17;159654.34;;;4.03
71897;BMP280;59767;51.344;12.362;2023-04-06T05:23:21;159664.81;;;4.07
71897;BMP280;59767;51.344;12.362;2023-04-06T05:26:25;159671.31;;;4.09
71897;BMP280;59767;51.344;12.362;2023-04-06T05:29:29;159696.06;;;4.19
71897;BMP280;59767;51.344;12.362;2023-04-06T05:32:33;159710.47;;;4.24
71897;BMP280;59767;51.344;12.362;2023-04-06T05:35:37;159718.28;;;4.27
71897;BMP280;59767;51.344;12.362;2023-04-06T05:38:41;159736.47;;;4.34
71897;BMP280;59767;51.344;12.362;2023-04-06T05:41:45;159736.47;;;4.34
71897;BMP280;59767;51.344;12.362;2023-04-06T05:44:49;159739.13;;;4.35
71897;BMP280;59767;51.344;12.362;2023-04-06T05:47:53;159730.03;;;4.32
71897;BMP280;59767;51.344;12.362;2023-04-06T05:50:58;159732.56;;;4.33
71897;BMP280;59767;51.344;12.362;2023-04-06T05:54:02;159749.53;;;4.39
71897;BMP280;59767;51.344;12.362;2023-04-06T05:57:06;159789.94;;;4.55
71897;BMP280;59767;51.344;12.362;2023-04-06T06:00:10;159784.75;;;4.53
71897;BMP280;59767;51.344;12.362;2023-04-06T06:03:14;159831.69;;;4.71
71897;BMP280;59767;51.344;12.362;2023-04-06T06:06:19;159883.91;;;4.91
71897;BMP280;59767;51.344;12.362;2023-04-06T06:09:23;159945.22;;;5.14
71897;BMP280;59767;51.344;12.362;2023-04-06T06:12:27;159986.97;;;5.30
71897;BMP280;59767;51.344;12.362;2023-04-06T06:15:31;160039.19;;;5.50
71897;BMP280;59767;51.344;12.362;2023-04-06T06:18:35;160080.94;;;5.66
71897;BMP280;59767;51.344;12.362;2023-04-06T06:21:40;160086.13;;;5.68
71897;BMP280;59767;51.344;12.362;2023-04-06T06:24:44;160109.63;;;5.78
71897;BMP280;59767;51.344;12.362;2023-04-06T06:27:49;160135.75;;;5.88
71897;BMP280;59767;51.344;12.362;2023-04-06T06:30:53;160147.50;;;5.92
71897;BMP280;59767;51.344;12.362;2023-04-06T06:33:56;160178.78;;;6.04
71897;BMP280;59767;51.344;12.362;2023-04-06T06:37:00;160206.22;;;6.15
71897;BMP280;59767;51.344;12.362;2023-04-06T06:40:05;160186.69;;;6.07
71897;BMP280;59767;51.344;12.362;2023-04-06T06:43:09;160221.91;;;6.21
71897;BMP280;59767;51.344;12.362;2023-04-06T06:46:13;160259.78;;;6.35
71897;BMP280;59767;51.344;12.362;2023-04-06T06:49:17;160283.25;;;6.44
71897;BMP280;59767;51.344;12.362;2023-04-06T06:52:22;160280.66;;;6.43
71897;BMP280;59767;51.344;12.362;2023-04-06T06:55:27;160322.44;;;6.59
71897;BMP280;59767;51.344;12.362;2023-04-06T06:58:31;160310.69;;;6.55
71897;BMP280;59767;51.344;12.362;2023-04-06T07:01:35;160326.38;;;6.61
71897;BMP280;59767;51.344;12.362;2023-04-06T07:04:39;160351.16;;;6.70
71897;BMP280;59767;51.344;12.362;2023-04-06T07:07:44;160374.63;;;6.79
71897;BMP280;59767;51.344;12.362;2023-04-06T07:10:49;160412.53;;;6.94
71897;BMP280;59767;51.344;12.362;2023-04-06T07:13:56;160479.13;;;7.19
71897;BMP280;59767;51.344;12.362;2023-04-06T07:17:00;160774.38;;;8.32
71897;BMP280;59767;51.344;12.362;2023-04-06T07:20:03;160963.91;;;9.05
71897;BMP280;59767;51.344;12.362;2023-04-06T07:23:07;161224.13;;;10.05
71897;BMP280;59767;51.344;12.362;2023-04-06T07:26:11;161332.72;;;10.46
71897;BMP280;59767;51.344;12.362;2023-04-06T07:29:15;161396.78;;;10.71
71897;BMP280;59767;51.344;12.362;2023-04-06T07:32:19;161598.31;;;11.48
71897;BMP280;59767;51.344;12.362;2023-04-06T07:35:24;161697.78;;;11.86
71897;BMP280;59767;51.344;12.362;2023-04-06T07:38:29;161798.66;;;12.24
71897;BMP280;59767;51.344;12.362;2023-04-06T07:41:33;161868.03;;;12.51
71897;BMP280;59767;51.344;12.362;2023-04-06T07:44:37;161878.44;;;12.55
71897;BMP280;59767;51.344;12.362;2023-04-06T07:47:41;161815.63;;;12.31
71897;BMP280;59767;51.344;12.362;2023-04-06T07:50:45;161769.81;;;12.13
71897;BMP280;59767;51.344;12.362;2023-04-06T07:53:52;161704.34;;;11.88
71897;BMP280;59767;51.344;12.362;2023-04-06T07:56:57;161620.53;;;11.56
71897;BMP280;59767;51.344;12.362;2023-04-06T08:00:01;161572.16;;;11.38
71897;BMP280;59767;51.344;12.362;2023-04-06T08:03:05;161560.34;;;11.33
71897;BMP280;59767;51.344;12.362;2023-04-06T08:06:09;161692.53;;;11.84
71897;BMP280;59767;51.344;12.362;2023-04-06T08:09:13;161907.25;;;12.66
71897;BMP280;59767;51.344;12.362;2023-04-06T08:12:17;162001.59;;;13.02
71897;BMP280;59767;51.344;12.362;2023-04-06T08:15:21;162187.59;;;13.73
71897;BMP280;59767;51.344;12.362;2023-04-06T08:18:25;162203.31;;;13.79
71897;BMP280;59767;51.344;12.362;2023-04-06T08:21:29;162154.84;;;13.60
71897;BMP280;59767;51.344;12.362;2023-04-06T08:24:33;162131.22;;;13.51
71897;BMP280;59767;51.344;12.362;2023-04-06T08:27:37;162171.91;;;13.67
71897;BMP280;59767;51.344;12.362;2023-04-06T08:30:42;162059.19;;;13.24
71897;BMP280;59767;51.344;12.362;2023-04-06T08:33:46;162150.91;;;13.59
71897;BMP280;59767;51.344;12.362;2023-04-06T08:36:49;162154.84;;;13.60
71897;BMP280;59767;51.344;12.362;2023-04-06T08:39:53;162088.03;;;13.35
71897;BMP280;59767;51.344;12.362;2023-04-06T08:42:58;162097.19;;;13.38
71897;BMP280;59767;51.344;12.362;2023-04-06T08:46:03;161964.91;;;12.88
71897;BMP280;59767;51.344;12.362;2023-04-06T08:49:07;161925.59;;;12.73
71897;BMP280;59767;51.344;12.362;2023-04-06T08:52:11;161920.38;;;12.71
71897;BMP280;59767;51.344;12.362;2023-04-06T08:55:16;161866.69;;;12.50
71897;BMP280;59767;51.344;12.362;2023-04-06T08:58:22;161870.56;;;12.52
71897;BMP280;59767;51.344;12.362;2023-04-06T09:01:40;161836.53;;;12.39
71897;BMP280;59767;51.344;12.362;2023-04-06T09:04:52;161887.66;;;12.58
71897;BMP280;59767;51.344;12.362;2023-04-06T09:07:56;161898.13;;;12.62
71897;BMP280;59767;51.344;12.362;2023-04-06T09:11:01;161920.38;;;12.71
71897;BMP280;59767;51.344;12.362;2023-04-06T09:14:05;161917.78;;;12.70
71897;BMP280;59767;51.344;12.362;2023-04-06T09:17:19;161874.50;;;12.53
71897;BMP280;59767;51.344;12.362;2023-04-06T09:20:23;161828.69;;;12.36
71897;BMP280;59767;51.344;12.362;2023-04-06T09:23:30;161767.16;;;12.12
71897;BMP280;59767;51.344;12.362;2023-04-06T09:26:44;161724.00;;;11.96
71897;BMP280;59767;51.344;12.362;2023-04-06T09:29:48;161692.53;;;11.84
71897;BMP280;59767;51.344;12.362;2023-04-06T09:32:53;161778.97;;;12.17
71897;BMP280;59767;51.344;12.362;2023-04-06T09:35:57;161810.41;;;12.29
71897;BMP280;59767;51.344;12.362;2023-04-06T09:39:02;161822.16;;;12.33
71897;BMP280;59767;51.344;12.362;2023-04-06T09:42:06;161847.06;;;12.43
71897;BMP280;59767;51.344;12.362;2023-04-06T09:45:10;161851.00;;;12.44
71897;BMP280;59767;51.344;12.362;2023-04-06T09:48:14;161824.75;;;12.34
71897;BMP280;59767;51.344;12.362;2023-04-06T09:51:18;161727.91;;;11.97
71897;BMP280;59767;51.344;12.362;2023-04-06T09:54:24;161700.41;;;11.87
71897;BMP280;59767;51.344;12.362;2023-04-06T09:57:32;161621.84;;;11.57
71897;BMP280;59767;51.344;12.362;2023-04-06T10:00:43;161620.53;;;11.56
71897;BMP280;59767;51.344;12.362;2023-04-06T10:07:16;161646.75;;;11.66
71897;BMP280;59767;51.344;12.362;2023-04-06T10:10:21;161650.69;;;11.68
71897;BMP280;59767;51.344;12.362;2023-04-06T10:13:25;161640.19;;;11.64
71897;BMP280;59767;51.344;12.362;2023-04-06T10:16:30;161629.72;;;11.60
71897;BMP280;59767;51.344;12.362;2023-04-06T10:19:49;161616.59;;;11.55
71897;BMP280;59767;51.344;12.362;2023-04-06T10:23:06;161598.31;;;11.48
71897;BMP280;59767;51.344;12.362;2023-04-06T10:26:13;161583.91;;;11.42
71897;BMP280;59767;51.344;12.362;2023-04-06T10:29:17;161551.19;;;11.30
71897;BMP280;59767;51.344;12.362;2023-04-06T10:32:31;161489.69;;;11.06
71897;BMP280;59767;51.344;12.362;2023-04-06T10:35:38;161484.44;;;11.04
71897;BMP280;59767;51.344;12.362;2023-04-06T10:38:42;161556.47;;;11.32
71897;BMP280;59767;51.344;12.362;2023-04-06T10:41:46;161642.81;;;11.65
71897;BMP280;59767;51.344;12.362;2023-04-06T10:44:52;161650.69;;;11.68
71897;BMP280;59767;51.344;12.362;2023-04-06T10:47:56;161678.19;;;11.78
71897;BMP280;59767;51.344;12.362;2023-04-06T10:51:00;161758.00;;;12.09
71897;BMP280;59767;51.344;12.362;2023-04-06T10:54:05;161731.84;;;11.99
71897;BMP280;59767;51.344;12.362;2023-04-06T10:57:10;161720.09;;;11.94
71897;BMP280;59767;51.344;12.362;2023-04-06T11:00:14;161729.16;;;11.98
71897;BMP280;59767;51.344;12.362;2023-04-06T11:03:19;161669.03;;;11.75
71897;BMP280;59767;51.344;12.362;2023-04-06T11:06:23;161704.34;;;11.88
71897;BMP280;59767;51.344;12.362;2023-04-06T11:09:28;161734.44;;;12.00
71897;BMP280;59767;51.344;12.362;2023-04-06T11:12:33;161701.72;;;11.87
71897;BMP280;59767;51.344;12.362;2023-04-06T11:15:37;161721.34;;;11.95
71897;BMP280;59767;51.344;12.362;2023-04-06T11:18:49;161742.31;;;12.03
71897;BMP280;59767;51.344;12.362;2023-04-06T11:21:53;161701.72;;;11.87
71897;BMP280;59767;51.344;12.362;2023-04-06T11:25:06;161657.22;;;11.70
71897;BMP280;59767;51.344;12.362;2023-04-06T11:28:13;161671.56;;;11.76
71897;BMP280;59767;51.344;12.362;2023-04-06T11:31:17;161666.38;;;11.74
71897;BMP280;59767;51.344;12.362;2023-04-06T11:34:22;161578.69;;;11.40
71897;BMP280;59767;51.344;12.362;2023-04-06T11:37:26;161590.47;;;11.45
71897;BMP280;59767;51.344;12.362;2023-04-06T11:40:31;161645.41;;;11.66
71897;BMP280;59767;51.344;12.362;2023-04-06T11:43:36;161679.44;;;11.79
71897;BMP280;59767;51.344;12.362;2023-04-06T11:46:41;161750.13;;;12.06
71897;BMP280;59767;51.344;12.362;2023-04-06T11:49:45;161841.78;;;12.41
71897;BMP280;59767;51.344;12.362;2023-04-06T11:52:57;161857.50;;;12.47
71897;BMP280;59767;51.344;12.362;2023-04-06T11:56:01;161886.31;;;12.58
71897;BMP280;59767;51.344;12.362;2023-04-06T11:59:05;161835.25;;;12.38
71897;BMP280;59767;51.344;12.362;2023-04-06T12:02:09;161782.84;;;12.18
71897;BMP280;59767;51.344;12.362;2023-04-06T12:05:13;161739.69;;;12.02
71897;BMP280;59767;51.344;12.362;2023-04-06T12:08:17;161729.16;;;11.98
71897;BMP280;59767;51.344;12.362;2023-04-06T12:11:21;161648.06;;;11.67
71897;BMP280;59767;51.344;12.362;2023-04-06T12:14:25;161684.72;;;11.81
71897;BMP280;59767;51.344;12.362;2023-04-06T12:17:29;161758.00;;;12.09
71897;BMP280;59767;51.344;12.362;2023-04-06T12:20:34;161826.09;;;12.35
71897;BMP280;59767;51.344;12.362;2023-04-06T12:23:38;161878.44;;;12.55
71897;BMP280;59767;51.344;12.362;2023-04-06T12:26:42;161905.97;;;12.65
71897;BMP280;59767;51.344;12.362;2023-04-06T12:29:47;161833.97;;;12.38
71897;BMP280;59767;51.344;12.362;2023-04-06T12:32:50;161822.16;;;12.33
71897;BMP280;59767;51.344;12.362;2023-04-06T12:35:55;161810.41;;;12.29
71897;BMP280;59767;51.344;12.362;2023-04-06T12:38:59;161822.16;;;12.33
71897;BMP280;59767;51.344;12.362;2023-04-06T12:42:04;161882.38;;;12.56
71897;BMP280;59767;51.344;12.362;2023-04-06T12:45:08;161778.97;;;12.17
71897;BMP280;59767;51.344;12.362;2023-04-06T12:48:13;161856.22;;;12.46
71897;BMP280;59767;51.344;12.362;2023-04-06T12:51:17;161873.22;;;12.53
71897;BMP280;59767;51.344;12.362;2023-04-06T12:54:21;161868.03;;;12.51
71897;BMP280;59767;51.344;12.362;2023-04-06T12:57:25;161860.13;;;12.48
71897;BMP280;59767;51.344;12.362;2023-04-06T13:00:30;161807.75;;;12.28
71897;BMP280;59767;51.344;12.362;2023-04-06T13:03:35;161852.31;;;12.45
71897;BMP280;59767;51.344;12.362;2023-04-06T13:06:40;161845.72;;;12.42
71897;BMP280;59767;51.344;12.362;2023-04-06T13:09:43;161856.22;;;12.46
71897;BMP280;59767;51.344;12.362;2023-04-06T13:12:49;161937.41;;;12.77
71897;BMP280;59767;51.344;12.362;2023-04-06T13:15:53;161845.72;;;12.42
71897;BMP280;59767;51.344;12.362;2023-04-06T13:18:59;161856.22;;;12.46
71897;BMP280;59767;51.344;12.362;2023-04-06T13:22:03;161857.50;;;12.47
71897;BMP280;59767;51.344;12.362;2023-04-06T13:25:07;161886.31;;;12.58
71897;BMP280;59767;51.344;12.362;2023-04-06T13:28:11;161843.13;;;12.41
71897;BMP280;59767;51.344;12.362;2023-04-06T13:31:16;161920.38;;;12.71
71897;BMP280;59767;51.344;12.362;2023-04-06T13:34:20;161877.16;;;12.54
71897;BMP280;59767;51.344;12.362;2023-04-06T13:37:24;161916.44;;;12.69
71897;BMP280;59767;51.344;12.362;2023-04-06T13:40:28;161888.94;;;12.59
71897;BMP280;59767;51.344;12.362;2023-04-06T13:43:33;161922.97;;;12.72
71897;BMP280;59767;51.344;12.362;2023-04-06T13:46:37;161891.53;;;12.60
71897;BMP280;59767;51.344;12.362;2023-04-06T13:49:41;161968.84;;;12.89
71897;BMP280;59767;51.344;12.362;2023-04-06T13:52:45;161933.47;;;12.76
71897;BMP280;59767;51.344;12.362;2023-04-06T13:55:53;161924.25;;;12.72
71897;BMP280;59767;51.344;12.362;2023-04-06T13:58:57;161957.00;;;12.85
71897;BMP280;59767;51.344;12.362;2023-04-06T14:02:03;161967.53;;;12.89
71897;BMP280;59767;51.344;12.362;2023-04-06T14:05:07;161946.56;;;12.81
71897;BMP280;59767;51.344;12.362;2023-04-06T14:08:12;161913.84;;;12.68
71897;BMP280;59767;51.344;12.362;2023-04-06T14:11:16;161856.22;;;12.46
71897;BMP280;59767;51.344;12.362;2023-04-06T14:14:20;161878.44;;;12.55
71897;BMP280;59767;51.344;12.362;2023-04-06T14:17:25;161851.00;;;12.44
71897;BMP280;59767;51.344;12.362;2023-04-06T14:20:33;161852.31;;;12.45
71897;BMP280;59767;51.344;12.362;2023-04-06T14:23:37;161868.03;;;12.51
71897;BMP280;59767;51.344;12.362;2023-04-06T14:26:41;161852.31;;;12.45
71897;BMP280;59767;51.344;12.362;2023-04-06T14:29:46;161870.56;;;12.52
71897;BMP280;59767;51.344;12.362;2023-04-06T14:32:50;161875.84;;;12.54
71897;BMP280;59767;51.344;12.362;2023-04-06T14:35:54;161877.16;;;12.54
71897;BMP280;59767;51.344;12.362;2023-04-06T14:38:58;161856.22;;;12.46
71897;BMP280;59767;51.344;12.362;2023-04-06T14:42:02;161837.84;;;12.39
71897;BMP280;59767;51.344;12.362;2023-04-06T14:45:05;161854.88;;;12.46
71897;BMP280;59767;51.344;12.362;2023-04-06T14:48:09;161818.22;;;12.32
71897;BMP280;59767;51.344;12.362;2023-04-06T14:51:15;161805.13;;;12.27
71897;BMP280;59767;51.344;12.362;2023-04-06T14:54:20;161756.72;;;12.08
71897;BMP280;59767;51.344;12.362;2023-04-06T14:57:24;161740.97;;;12.02
71897;BMP280;59767;51.344;12.362;2023-04-06T15:00:28;161764.56;;;12.11
71897;BMP280;59767;51.344;12.362;2023-04-06T15:03:31;161773.75;;;12.15
71897;BMP280;59767;51.344;12.362;2023-04-06T15:06:36;161773.75;;;12.15
71897;BMP280;59767;51.344;12.362;2023-04-06T15:09:40;161793.38;;;12.22
71897;BMP280;59767;51.344;12.362;2023-04-06T15:12:44;161820.81;;;12.33
71897;BMP280;59767;51.344;12.362;2023-04-06T15:15:49;161823.47;;;12.34
71897;BMP280;59767;51.344;12.362;2023-04-06T15:18:54;161841.78;;;12.41
71897;BMP280;59767;51.344;12.362;2023-04-06T15:21:58;161852.31;;;12.45
71897;BMP280;59767;51.344;12.362;2023-04-06T15:25:04;161853.53;;;12.45
71897;BMP280;59767;51.344;12.362;2023-04-06T15:28:08;161852.31;;;12.45
71897;BMP280;59767;51.344;12.362;2023-04-06T15:31:13;161823.47;;;12.34
71897;BMP280;59767;51.344;12.362;2023-04-06T15:34:31;161760.66;;;12.10
71897;BMP280;59767;51.344;12.362;2023-04-06T15:37:36;161778.97;;;12.17
71897;BMP280;59767;51.344;12.362;2023-04-06T15:40:44;161820.81;;;12.33
71897;BMP280;59767;51.344;12.362;2023-04-06T15:43:49;161807.75;;;12.28
71897;BMP280;59767;51.344;12.362;2023-04-06T15:46:55;161746.19;;;12.04
71897;BMP280;59767;51.344;12.362;2023-04-06T15:50:00;161665.09;;;11.73
71897;BMP280;59767;51.344;12.362;2023-04-06T15:53:04;161653.28;;;11.69
71897;BMP280;59767;51.344;12.362;2023-04-06T15:56:08;161670.34;;;11.75
71897;BMP280;59767;51.344;12.362;2023-04-06T15:59:12;161615.31;;;11.54
71897;BMP280;59767;51.344;12.362;2023-04-06T16:02:18;161615.31;;;11.54
71897;BMP280;59767;51.344;12.362;2023-04-06T16:05:23;161650.69;;;11.68
71897;BMP280;59767;51.344;12.362;2023-04-06T16:08:27;161564.28;;;11.35
71897;BMP280;59767;51.344;12.362;2023-04-06T16:11:31;161581.28;;;11.41
71897;BMP280;59767;51.344;12.362;2023-04-06T16:14:35;161556.47;;;11.32
71897;BMP280;59767;51.344;12.362;2023-04-06T16:17:40;161559.03;;;11.33
71897;BMP280;59767;51.344;12.362;2023-04-06T16:20:44;161527.66;;;11.21
71897;BMP280;59767;51.344;12.362;2023-04-06T16:23:48;161513.25;;;11.15
71897;BMP280;59767;51.344;12.362;2023-04-06T16:26:52;161506.72;;;11.13
71897;BMP280;59767;51.344;12.362;2023-04-06T16:29:56;161542.00;;;11.26
71897;BMP280;59767;51.344;12.362;2023-04-06T16:33:00;161553.84;;;11.31
71897;BMP280;59767;51.344;12.362;2023-04-06T16:36:04;161511.97;;;11.15
71897;BMP280;59767;51.344;12.362;2023-04-06T16:39:08;161485.75;;;11.05
71897;BMP280;59767;51.344;12.362;2023-04-06T16:42:12;161446.50;;;10.90
71897;BMP280;59767;51.344;12.362;2023-04-06T16:45:17;161421.63;;;10.80
71897;BMP280;59767;51.344;12.362;2023-04-06T16:48:21;161417.69;;;10.79
71897;BMP280;59767;51.344;12.362;2023-04-06T16:51:27;161439.94;;;10.87
71897;BMP280;59767;51.344;12.362;2023-04-06T16:54:31;161408.59;;;10.75
71897;BMP280;59767;51.344;12.362;2023-04-06T16:57:37;161386.34;;;10.67
71897;BMP280;59767;51.344;12.362;2023-04-06T17:00:41;161387.66;;;10.67
71897;BMP280;59767;51.344;12.362;2023-04-06T17:03:45;161390.25;;;10.68
71897;BMP280;59767;51.344;12.362;2023-04-06T17:06:50;161391.59;;;10.69
71897;BMP280;59767;51.344;12.362;2023-04-06T17:09:59;161343.13;;;10.50
71897;BMP280;59767;51.344;12.362;2023-04-06T17:13:04;161365.41;;;10.59
71897;BMP280;59767;51.344;12.362;2023-04-06T17:16:09;161349.72;;;10.53
71897;BMP280;59767;51.344;12.362;2023-04-06T17:19:13;161332.72;;;10.46
71897;BMP280;59767;51.344;12.362;2023-04-06T17:22:16;161337.91;;;10.48